Time;durP1;ratioP1;P1;durP2;ratioP2;P2;SDS_P1;SDS_P2;PMS_P1;PMS_P2;Temp;Humidity;BMP_temperature;BMP_pressure;BME280_temperature;BME280_humidity;BME280_pressure;Samples;Min_cycle;Max_cycle;Signal;HPM_P1;HPM_P2
2021/04/26 00:02:03;;;;;;;14.60;3.85;;;;;;;6.61;54.53;102491.44;5060979;28;20459;-73
2021/04/26 00:04:29;;;;;;;15.35;3.67;;;;;;;6.52;54.18;102487.53;5053122;28;20045;-73
2021/04/26 00:06:55;;;;;;;21.25;5.35;;;;;;;6.51;53.87;102480.66;5058091;28;20551;-73
2021/04/26 00:09:21;;;;;;;16.45;3.25;;;;;;;6.54;53.67;102485.69;5059957;28;20053;-72
2021/04/26 00:11:47;;;;;;;10.95;3.15;;;;;;;6.56;53.64;102490.84;5057322;28;20430;-72
2021/04/26 00:14:13;;;;;;;13.07;3.60;;;;;;;6.51;53.61;102491.09;5062922;28;20051;-72
2021/04/26 00:16:39;;;;;;;15.15;3.97;;;;;;;6.54;54.02;102484.84;5036349;28;20110;-73
2021/04/26 00:19:06;;;;;;;9.88;3.33;;;;;;;6.49;53.91;102479.06;5061417;28;20625;-72
2021/04/26 00:21:32;;;;;;;16.73;3.83;;;;;;;6.49;54.41;102487.72;5060588;28;20466;-73
2021/04/26 00:23:59;;;;;;;12.65;3.63;;;;;;;6.46;53.74;102480.03;5064013;28;20467;-72
2021/04/26 00:26:25;;;;;;;13.02;3.80;;;;;;;6.42;54.69;102469.84;5064543;28;20780;-72
2021/04/26 00:28:51;;;;;;;15.60;3.85;;;;;;;6.33;53.71;102471.16;5057028;28;20466;-72
2021/04/26 00:31:18;;;;;;;13.90;3.58;;;;;;;6.40;53.90;102477.75;5059833;28;20044;-73
2021/04/26 00:33:44;;;;;;;13.63;3.10;;;;;;;6.37;53.83;102475.31;5053681;28;20061;-73
2021/04/26 00:36:10;;;;;;;10.40;3.28;;;;;;;6.28;54.50;102458.38;5062858;28;20060;-72
2021/04/26 00:38:36;;;;;;;20.85;4.00;;;;;;;6.25;54.56;102460.28;5062518;28;20095;-71
2021/04/26 00:41:02;;;;;;;16.70;4.20;;;;;;;6.26;54.79;102459.38;5056531;28;20381;-73
2021/04/26 00:43:29;;;;;;;16.77;3.63;;;;;;;6.24;54.73;102456.84;5061020;28;20053;-73
2021/04/26 00:45:55;;;;;;;18.27;3.78;;;;;;;6.21;54.37;102453.53;5050384;28;20699;-73
2021/04/26 00:48:21;;;;;;;12.68;3.85;;;;;;;6.19;54.52;102458.00;5063279;28;20733;-73
2021/04/26 00:50:47;;;;;;;12.38;3.25;;;;;;;6.05;54.43;102440.44;5041037;28;20124;-73
2021/04/26 00:53:13;;;;;;;17.20;3.40;;;;;;;6.06;55.18;102432.56;5060550;28;20064;-73
2021/04/26 00:55:40;;;;;;;13.90;3.90;;;;;;;6.05;55.06;102445.66;5059554;28;20772;-72
2021/04/26 00:58:07;;;;;;;20.30;3.90;;;;;;;6.05;55.08;102446.50;5050311;28;20096;-73
2021/04/26 01:00:34;;;;;;;13.68;3.58;;;;;;;6.04;54.76;102433.56;5057450;28;20048;-73
2021/04/26 01:03:01;;;;;;;13.93;4.88;;;;;;;6.03;55.03;102435.31;5057668;28;20100;-73
2021/04/26 01:05:30;;;;;;;12.13;3.45;;;;;;;6.03;54.84;102432.72;5065572;28;20575;-72
2021/04/26 01:07:57;;;;;;;;;;;;;;;5.99;54.64;102443.38;5049318;28;20471;-72
2021/04/26 01:10:26;;;;;;;12.27;3.20;;;;;;;5.93;55.17;102434.91;5060824;28;20286;-73
2021/04/26 01:13:34;;;;;;;14.75;3.03;;;;;;;5.96;54.58;102433.09;5057560;28;20060;-73
2021/04/26 01:16:14;;;;;;;12.23;3.03;;;;;;;5.91;55.24;102438.50;4995388;28;20834;-72
2021/04/26 01:19:18;;;;;;;11.13;3.83;;;;;;;5.88;55.23;102441.25;5061114;28;20052;-73
2021/04/26 01:22:22;;;;;;;20.42;4.40;;;;;;;5.85;55.17;102438.81;5060557;28;20131;-73
2021/04/26 01:24:51;;;;;;;18.45;3.70;;;;;;;5.82;55.38;102429.41;5049256;28;20102;-72
2021/04/26 01:27:37;;;;;;;17.98;3.50;;;;;;;5.78;55.07;102434.81;5054231;28;20062;-73
2021/04/26 01:30:22;;;;;;;12.60;3.28;;;;;;;5.76;55.55;102424.47;5058523;28;20056;-72
2021/04/26 01:32:58;;;;;;;18.13;4.22;;;;;;;5.68;55.36;102417.03;5054504;28;20060;-73
2021/04/26 01:35:25;;;;;;;14.00;3.72;;;;;;;5.64;55.90;102412.06;5044573;28;20048;-73
2021/04/26 01:38:01;;;;;;;18.42;3.70;;;;;;;5.68;55.48;102418.81;5056870;28;20126;-72
2021/04/26 01:40:27;;;;;;;18.23;3.97;;;;;;;5.67;55.65;102414.53;5058875;28;20052;-72
2021/04/26 01:42:57;;;;;;;18.58;4.68;;;;;;;5.62;56.22;102404.31;5052865;28;20048;-73
2021/04/26 01:45:23;;;;;;;17.00;3.53;;;;;;;5.60;55.95;102400.13;5066448;28;20056;-73
2021/04/26 01:47:53;;;;;;;20.88;3.70;;;;;;;5.57;56.12;102393.31;5040409;28;20055;-73
2021/04/26 01:50:21;;;;;;;10.63;3.75;;;;;;;5.63;56.08;102407.78;5063242;28;20048;-73
2021/04/26 01:52:48;;;;;;;9.48;3.72;;;;;;;5.55;56.09;102398.59;5060851;28;20060;-73
2021/04/26 01:55:14;;;;;;;16.67;3.70;;;;;;;5.57;55.72;102400.25;5049006;28;20056;-72
2021/04/26 01:57:43;;;;;;;9.50;3.20;;;;;;;5.55;56.20;102401.19;5058580;28;20136;-73
2021/04/26 02:00:13;;;;;;;16.92;4.35;;;;;;;5.51;56.58;102401.44;5055470;28;20130;-73
2021/04/26 02:02:41;;;;;;;19.60;4.68;;;;;;;5.45;56.42;102393.88;5060749;28;20048;-72
2021/04/26 02:05:08;;;;;;;;;;;;;;;5.53;56.51;102397.00;5059079;28;20051;-73
2021/04/26 02:07:36;;;;;;;18.85;4.35;;;;;;;5.39;57.10;102389.84;5055766;28;19994;-73
2021/04/26 02:10:02;;;;;;;17.40;4.40;;;;;;;5.44;56.67;102389.63;5056838;28;20056;-72
2021/04/26 02:12:29;;;;;;;14.68;4.43;;;;;;;5.37;56.75;102388.22;5051453;28;20294;-72
2021/04/26 02:14:56;;;;;;;19.58;4.82;;;;;;;5.43;56.91;102401.78;5059616;28;20079;-72
2021/04/26 02:17:23;;;;;;;16.98;4.80;;;;;;;5.43;56.91;102404.41;5056346;28;20110;-72
2021/04/26 02:19:49;;;;;;;24.90;5.25;;;;;;;5.39;56.60;102394.19;5061583;28;20102;-72
2021/04/26 02:22:15;;;;;;;21.95;6.22;;;;;;;5.33;56.69;102390.97;5052422;28;20100;-73
2021/04/26 02:24:41;;;;;;;18.20;5.00;;;;;;;5.40;56.94;102401.09;5060153;28;20129;-72
2021/04/26 02:27:07;;;;;;;19.55;5.15;;;;;;;5.40;57.29;102385.47;5063067;28;20064;-72
2021/04/26 02:29:34;;;;;;;21.77;4.60;;;;;;;5.33;56.91;102379.72;5059887;28;20143;-72
2021/04/26 02:32:06;;;;;;;16.35;4.43;;;;;;;5.32;56.87;102381.47;5065192;28;20058;-72
2021/04/26 02:34:38;;;;;;;17.15;4.30;;;;;;;5.37;56.59;102388.22;5059824;28;20136;-72
2021/04/26 02:37:16;;;;;;;14.73;3.70;;;;;;;5.31;57.15;102381.53;5056627;28;20155;-73
2021/04/26 02:39:46;;;;;;;10.00;3.03;;;;;;;5.30;57.14;102383.31;5051746;28;20060;-73
2021/04/26 02:42:14;;;;;;;13.45;3.75;;;;;;;5.31;57.17;102382.41;5061593;28;20056;-73
2021/04/26 02:44:44;;;;;;;14.73;4.13;;;;;;;5.23;57.53;102368.91;5059771;28;20049;-72
2021/04/26 02:47:14;;;;;;;12.32;3.72;;;;;;;5.29;57.18;102383.38;5058620;28;20825;-72
2021/04/26 02:49:43;;;;;;;16.63;5.20;;;;;;;5.24;56.98;102367.16;5057949;28;20052;-73
2021/04/26 02:52:10;;;;;;;18.73;4.25;;;;;;;5.23;56.88;102368.06;5051600;28;20059;-73
2021/04/26 02:54:38;;;;;;;18.45;4.25;;;;;;;5.19;57.65;102364.75;5061233;28;20106;-72
2021/04/26 02:57:05;;;;;;;18.40;4.57;;;;;;;5.20;57.38;102363.88;5056212;28;20048;-73
2021/04/26 02:59:31;;;;;;;16.77;4.65;;;;;;;5.20;57.50;102366.47;5060467;28;20570;-72
2021/04/26 03:01:57;;;;;;;11.98;3.53;;;;;;;5.12;57.32;102345.19;5059912;28;20084;-73
2021/04/26 03:04:28;;;;;;;14.00;3.72;;;;;;;5.19;57.58;102362.16;5054556;28;20051;-72
2021/04/26 03:06:57;;;;;;;22.75;4.18;;;;;;;5.17;57.67;102356.19;5057918;28;20451;-72
2021/04/26 03:09:23;;;;;;;15.02;4.18;;;;;;;5.13;57.85;102352.06;5059481;28;20488;-72
2021/04/26 03:11:52;;;;;;;12.30;3.78;;;;;;;5.12;57.89;102350.38;5047614;28;20055;-72
2021/04/26 03:14:20;;;;;;;18.73;4.68;;;;;;;5.07;57.94;102344.56;5057392;28;20064;-72
2021/04/26 03:16:48;;;;;;;15.70;4.07;;;;;;;5.08;57.90;102349.69;5056397;28;20056;-72
2021/04/26 03:19:16;;;;;;;9.98;3.35;;;;;;;5.02;58.21;102339.59;5051099;28;20094;-72
2021/04/26 03:21:44;;;;;;;11.07;3.85;;;;;;;5.02;58.00;102338.72;5064488;28;20056;-72
2021/04/26 03:24:14;;;;;;;19.55;3.80;;;;;;;5.00;57.73;102336.22;5060528;28;20731;-72
2021/04/26 03:26:42;;;;;;;11.82;3.45;;;;;;;5.01;58.23;102334.44;5054075;28;20106;-72
2021/04/26 03:29:09;;;;;;;15.53;3.20;;;;;;;5.00;58.00;102341.41;5065914;28;20052;-72
2021/04/26 03:31:35;;;;;;;10.80;3.20;;;;;;;4.97;57.85;102341.53;5051574;28;20048;-73
2021/04/26 03:34:02;;;;;;;16.52;3.72;;;;;;;4.95;58.22;102343.38;5056436;28;20171;-72
2021/04/26 03:36:29;;;;;;;16.40;3.90;;;;;;;4.87;58.36;102335.09;5056328;28;20056;-72
2021/04/26 03:38:56;;;;;;;13.43;3.55;;;;;;;4.90;57.98;102340.13;5062910;28;20143;-73
2021/04/26 03:41:22;;;;;;;13.02;3.65;;;;;;;4.87;58.25;102342.91;5058073;28;20056;-72
2021/04/26 03:43:48;;;;;;;14.57;4.00;;;;;;;4.89;58.07;102341.06;5055429;28;20056;-72
2021/04/26 03:46:15;;;;;;;20.38;4.97;;;;;;;4.84;58.48;102343.03;5057518;28;20499;-73
2021/04/26 03:48:41;;;;;;;11.43;3.75;;;;;;;4.84;58.62;102340.44;5053344;28;20799;-72
2021/04/26 03:51:07;;;;;;;18.67;4.22;;;;;;;4.83;59.00;102337.00;5061019;28;20065;-72
2021/04/26 03:53:33;;;;;;;18.20;4.28;;;;;;;4.79;59.21;102335.47;5038068;28;20056;-72
2021/04/26 03:55:59;;;;;;;15.50;3.80;;;;;;;4.78;58.72;102327.72;5058552;28;20048;-72
2021/04/26 03:58:25;;;;;;;12.38;3.83;;;;;;;4.76;59.24;102330.38;5041294;28;20048;-72
2021/04/26 04:00:51;;;;;;;19.50;4.15;;;;;;;4.72;59.29;102327.13;5045357;28;20127;-71
2021/04/26 04:03:17;;;;;;;18.33;3.60;;;;;;;4.74;58.95;102327.88;5058406;28;20415;-72
2021/04/26 04:05:45;;;;;;;12.68;3.65;;;;;;;4.72;59.16;102321.91;5058406;28;20579;-73
2021/04/26 04:08:11;;;;;;;18.70;3.92;;;;;;;4.69;59.36;102323.81;5044203;28;20534;-72
2021/04/26 04:10:37;;;;;;;16.23;3.63;;;;;;;4.64;59.65;102313.59;5060787;28;20052;-72
2021/04/26 04:13:03;;;;;;;10.32;2.92;;;;;;;4.62;59.38;102315.44;5059907;28;20507;-72
2021/04/26 04:15:29;;;;;;;11.95;3.50;;;;;;;4.59;59.69;102312.13;5059178;28;20056;-72
2021/04/26 04:17:57;;;;;;;11.07;3.10;;;;;;;4.58;59.18;102311.28;5057719;28;20056;-72
2021/04/26 04:20:24;;;;;;;12.35;2.90;;;;;;;4.50;59.50;102309.03;5061060;28;20071;-72
2021/04/26 04:22:50;;;;;;;12.98;3.60;;;;;;;4.50;59.86;102305.63;5056564;28;20092;-73
2021/04/26 04:25:17;;;;;;;14.27;3.40;;;;;;;4.48;59.90;102310.88;5065400;28;20053;-73
2021/04/26 04:27:44;;;;;;;9.40;2.78;;;;;;;4.41;60.22;102311.22;5055005;28;21184;-73
2021/04/26 04:30:12;;;;;;;10.98;3.00;;;;;;;4.41;60.12;102301.69;5058603;28;20053;-73
2021/04/26 04:32:38;;;;;;;9.87;2.97;;;;;;;4.40;60.34;102309.56;5063279;28;20139;-72
2021/04/26 04:35:05;;;;;;;16.58;3.78;;;;;;;4.36;60.51;102311.44;5057435;28;20059;-73
2021/04/26 04:37:31;;;;;;;14.82;3.40;;;;;;;4.34;60.37;102316.69;5051314;28;20146;-72
2021/04/26 04:39:57;;;;;;;19.20;3.50;;;;;;;4.30;60.61;102306.53;5059035;28;20052;-73
2021/04/26 04:42:23;;;;;;;8.32;3.25;;;;;;;4.30;60.64;102316.91;5057546;28;20057;-74
2021/04/26 04:44:50;;;;;;;11.38;3.47;;;;;;;4.29;60.15;102317.81;5056715;28;20048;-72
2021/04/26 04:47:16;;;;;;;13.15;3.42;;;;;;;4.22;61.11;102300.84;5062925;28;20052;-73
2021/04/26 04:49:42;;;;;;;16.33;3.42;;;;;;;4.21;61.35;102301.75;5062331;28;20498;-73
2021/04/26 04:52:08;;;;;;;15.35;3.55;;;;;;;4.23;61.42;102305.94;5057251;28;20061;-73
2021/04/26 04:54:34;;;;;;;12.15;3.63;;;;;;;4.23;61.49;102303.34;5060655;28;20061;-73
2021/04/26 04:57:00;;;;;;;18.73;3.53;;;;;;;4.25;61.25;102303.28;5056189;28;20052;-73
2021/04/26 04:59:27;;;;;;;11.35;3.05;;;;;;;4.26;60.88;102303.22;5061589;28;20052;-73
2021/04/26 05:01:53;;;;;;;7.53;2.70;;;;;;;4.26;61.27;102295.44;5049631;28;20079;-73
2021/04/26 05:04:19;;;;;;;10.25;3.53;;;;;;;4.32;61.34;102300.34;5043807;28;20590;-74
2021/04/26 05:06:45;;;;;;;11.13;2.97;;;;;;;4.28;61.30;102291.00;5051382;28;20044;-73
2021/04/26 05:09:11;;;;;;;13.57;3.33;;;;;;;4.40;61.38;102301.75;5050011;28;20161;-73
2021/04/26 05:11:37;;;;;;;9.02;2.65;;;;;;;4.42;62.02;102303.38;5063466;28;20526;-73
2021/04/26 05:14:03;;;;;;;9.23;3.00;;;;;;;4.44;61.94;102304.13;5055639;28;20637;-73
2021/04/26 05:16:31;;;;;;;10.35;3.00;;;;;;;4.44;62.14;102292.91;5061082;28;20373;-73
2021/04/26 05:18:59;;;;;;;7.70;3.03;;;;;;;4.50;62.03;102293.47;5055305;28;20487;-73
2021/04/26 05:21:27;;;;;;;12.80;3.53;;;;;;;4.53;62.32;102298.53;5054414;28;20488;-73
2021/04/26 05:23:55;;;;;;;10.52;3.40;;;;;;;4.54;62.23;102296.75;5059966;28;20044;-72
2021/04/26 05:26:22;;;;;;;9.52;3.22;;;;;;;4.58;62.14;102298.31;5053764;28;20055;-73
2021/04/26 05:28:48;;;;;;;9.10;2.60;;;;;;;4.59;62.30;102301.72;5061759;28;20060;-73
2021/04/26 05:31:14;;;;;;;15.45;3.38;;;;;;;4.61;62.04;102297.34;5056510;28;20571;-73
2021/04/26 05:33:40;;;;;;;13.93;3.10;;;;;;;4.65;61.84;102285.88;5041677;28;20049;-72
2021/04/26 05:36:06;;;;;;;6.45;2.55;;;;;;;4.73;61.72;102300.19;5041962;28;20055;-73
2021/04/26 05:38:32;;;;;;;8.57;3.17;;;;;;;4.71;61.87;102294.22;5053295;28;20056;-73
2021/04/26 05:40:59;;;;;;;7.57;2.67;;;;;;;4.79;61.99;102299.06;5061460;28;20056;-72
2021/04/26 05:43:25;;;;;;;10.82;3.00;;;;;;;4.79;62.27;102293.03;5051724;28;20688;-73
2021/04/26 05:45:51;;;;;;;13.52;2.75;;;;;;;4.83;61.42;102292.78;5056559;28;20064;-73
2021/04/26 05:48:17;;;;;;;8.02;3.20;;;;;;;4.93;62.17;102293.19;5052782;28;20909;-73
2021/04/26 05:50:43;;;;;;;19.33;3.38;;;;;;;4.97;61.81;102293.91;5028904;28;20116;-72
2021/04/26 05:53:09;;;;;;;13.95;2.80;;;;;;;5.03;61.19;102296.19;5063058;28;20568;-72
2021/04/26 05:55:35;;;;;;;9.32;2.38;;;;;;;5.08;61.01;102297.66;5057264;28;20060;-73
2021/04/26 05:58:02;;;;;;;8.15;2.50;;;;;;;5.12;61.59;102303.56;5059787;28;20059;-73
2021/04/26 06:00:28;;;;;;;12.48;2.85;;;;;;;5.13;61.60;102302.63;5032704;28;20053;-73
2021/04/26 06:02:58;;;;;;;9.55;2.42;;;;;;;5.15;61.32;102291.25;5055660;28;20052;-73
2021/04/26 06:05:25;;;;;;;6.78;2.45;;;;;;;5.22;60.80;102293.56;5053271;28;20412;-72
2021/04/26 06:07:51;;;;;;;6.28;3.08;;;;;;;5.26;61.22;102297.69;5059126;28;20057;-73
2021/04/26 06:10:17;;;;;;;11.48;2.28;;;;;;;5.33;60.83;102289.50;5042176;28;20451;-73
2021/04/26 06:12:43;;;;;;;11.98;3.30;;;;;;;5.34;60.75;102292.94;5054025;28;20052;-73
2021/04/26 06:15:10;;;;;;;6.63;2.63;;;;;;;5.40;60.29;102297.00;5056398;28;20052;-73
2021/04/26 06:17:36;;;;;;;8.45;2.55;;;;;;;5.40;59.95;102292.63;5052830;28;20087;-73
2021/04/26 06:20:03;;;;;;;8.30;2.60;;;;;;;5.48;60.38;102290.47;5062417;28;20083;-73
2021/04/26 06:22:29;;;;;;;18.15;2.72;;;;;;;5.49;60.08;102292.19;5055379;28;20102;-73
2021/04/26 06:24:55;;;;;;;10.32;2.42;;;;;;;5.54;60.32;102287.56;5065932;28;20071;-72
2021/04/26 06:27:21;;;;;;;12.30;2.88;;;;;;;5.54;60.38;102284.97;5065580;28;20586;-73
2021/04/26 06:29:47;;;;;;;13.32;2.92;;;;;;;5.64;60.27;102290.53;5050828;28;20844;-73
2021/04/26 06:32:13;;;;;;;9.50;2.22;;;;;;;5.65;59.95;102283.59;5060681;28;20060;-74
2021/04/26 06:34:39;;;;;;;8.70;2.92;;;;;;;5.66;59.02;102286.09;5055146;28;20834;-74
2021/04/26 06:37:06;;;;;;;7.53;2.67;;;;;;;5.75;59.51;102296.06;5044162;28;20076;-72
2021/04/26 06:39:32;;;;;;;12.23;3.50;;;;;;;5.79;59.23;102298.50;5050176;28;20048;-75
2021/04/26 06:42:00;;;;;;;9.15;2.45;;;;;;;5.81;59.31;102294.91;5049130;28;20059;-73
2021/04/26 06:44:27;;;;;;;10.20;2.50;;;;;;;5.85;59.08;102285.16;5038925;28;20052;-73
2021/04/26 06:46:53;;;;;;;7.22;2.78;;;;;;;5.90;58.98;102283.16;5046851;28;20056;-73
2021/04/26 06:49:20;;;;;;;13.65;2.70;;;;;;;5.92;58.42;102289.97;5061493;28;20440;-73
2021/04/26 06:51:49;;;;;;;9.70;2.58;;;;;;;6.00;57.76;102296.56;5056066;28;20591;-75
2021/04/26 06:54:15;;;;;;;16.60;3.05;;;;;;;6.04;57.45;102290.28;5041320;28;20045;-74
2021/04/26 06:56:41;;;;;;;11.80;2.15;;;;;;;6.04;57.09;102280.72;5032199;28;20526;-74
2021/04/26 06:59:07;;;;;;;9.38;2.25;;;;;;;6.13;56.43;102282.84;5060145;28;20052;-73
2021/04/26 07:01:33;;;;;;;8.07;2.90;;;;;;;6.19;56.66;102284.25;5051901;28;20099;-72
2021/04/26 07:04:00;;;;;;;9.23;2.22;;;;;;;6.21;57.13;102274.59;5037014;28;20052;-73
2021/04/26 07:06:26;;;;;;;9.85;2.70;;;;;;;6.22;56.81;102272.84;5041130;28;20057;-73
2021/04/26 07:08:52;;;;;;;10.15;3.13;;;;;;;6.28;57.48;102267.28;5053673;28;20121;-73
2021/04/26 07:11:18;;;;;;;10.25;2.85;;;;;;;6.32;57.09;102268.81;5056527;28;20126;-73
2021/04/26 07:13:44;;;;;;;7.97;2.70;;;;;;;6.38;56.99;102268.47;5036785;28;20063;-73
2021/04/26 07:16:11;;;;;;;8.68;2.95;;;;;;;6.37;56.58;102263.34;5058986;28;20051;-74
2021/04/26 07:18:37;;;;;;;11.50;2.78;;;;;;;6.42;56.65;102256.94;5061509;28;20106;-74
2021/04/26 07:21:05;;;;;;;9.05;2.90;;;;;;;6.52;56.79;102267.72;5056447;28;20048;-74
2021/04/26 07:23:31;;;;;;;7.82;2.55;;;;;;;6.52;56.45;102255.50;5054154;28;20776;-74
2021/04/26 07:25:59;;;;;;;10.70;3.03;;;;;;;6.61;55.64;102259.38;5053984;28;20052;-74
2021/04/26 07:28:26;;;;;;;6.73;2.70;;;;;;;6.59;55.96;102258.63;5059774;28;20055;-73
2021/04/26 07:30:52;;;;;;;9.68;2.80;;;;;;;6.67;55.03;102255.59;5054354;28;21643;-74
2021/04/26 07:33:18;;;;;;;13.15;2.90;;;;;;;6.69;55.67;102253.75;5055784;28;20062;-74
2021/04/26 07:35:44;;;;;;;13.85;3.30;;;;;;;6.75;55.56;102261.22;5065635;28;20052;-73
2021/04/26 07:38:10;;;;;;;10.95;3.60;;;;;;;6.79;56.28;102256.69;5055443;28;20091;-74
2021/04/26 07:40:37;;;;;;;10.05;3.97;;;;;;;6.81;55.99;102260.88;5063141;28;20064;-73
2021/04/26 07:43:03;;;;;;;9.13;3.33;;;;;;;6.86;55.27;102263.22;5059347;28;20063;-74
2021/04/26 07:45:29;;;;;;;12.27;3.63;;;;;;;6.87;55.71;102257.91;5062136;28;20118;-74
2021/04/26 07:47:57;;;;;;;14.57;3.65;;;;;;;6.91;55.90;102264.63;5068107;28;20056;-73
2021/04/26 07:50:24;;;;;;;5.60;2.75;;;;;;;6.96;55.68;102259.19;5058635;28;20056;-72
2021/04/26 07:52:50;;;;;;;11.70;3.38;;;;;;;6.99;55.95;102252.94;5058172;28;20053;-74
2021/04/26 07:55:16;;;;;;;9.00;3.22;;;;;;;7.08;56.49;102258.47;5055903;28;20119;-74
2021/04/26 07:57:42;;;;;;;9.23;3.47;;;;;;;7.10;56.16;102250.56;5066993;28;20052;-74
2021/04/26 08:00:09;;;;;;;10.48;3.88;;;;;;;7.18;56.05;102258.78;5060390;28;20126;-74
2021/04/26 08:02:36;;;;;;;7.55;3.13;;;;;;;7.27;55.74;102254.78;5054678;28;20140;-73
2021/04/26 08:05:03;;;;;;;17.38;3.10;;;;;;;7.32;55.52;102253.56;5061824;28;20571;-74
2021/04/26 08:07:30;;;;;;;8.43;3.05;;;;;;;7.50;55.39;102249.03;5038353;28;20049;-74
2021/04/26 08:09:56;;;;;;;8.23;2.88;;;;;;;7.75;55.09;102242.34;5063578;28;20056;-74
2021/04/26 08:12:22;;;;;;;8.77;3.03;;;;;;;8.08;54.66;102255.13;5055235;28;20114;-74
2021/04/26 08:14:49;;;;;;;9.38;3.33;;;;;;;8.48;54.32;102246.56;5061005;28;20102;-74
2021/04/26 08:17:15;;;;;;;10.75;3.50;;;;;;;8.85;53.15;102242.41;5055511;28;20053;-74
2021/04/26 08:19:41;;;;;;;9.95;3.67;;;;;;;9.32;52.08;102244.63;5060108;28;20084;-73
2021/04/26 08:22:09;;;;;;;9.85;2.97;;;;;;;9.75;50.45;102250.38;5060371;28;20106;-73
2021/04/26 08:24:35;;;;;;;6.28;3.00;;;;;;;10.15;49.73;102238.88;5060676;28;20122;-72
2021/04/26 08:27:01;;;;;;;8.25;3.28;;;;;;;10.47;48.78;102242.69;5064732;28;20092;-72
2021/04/26 08:29:27;;;;;;;13.02;3.92;;;;;;;10.78;46.93;102229.09;5039800;28;20131;-72
2021/04/26 08:31:54;;;;;;;8.05;3.15;;;;;;;11.02;45.79;102218.59;5063081;28;20052;-73
2021/04/26 08:34:20;;;;;;;11.95;3.70;;;;;;;11.36;45.60;102224.75;5053756;28;20052;-73
2021/04/26 08:36:46;;;;;;;10.15;3.50;;;;;;;11.67;44.68;102225.84;5060585;28;20052;-74
2021/04/26 08:39:14;;;;;;;12.50;3.40;;;;;;;11.91;43.21;102221.47;5054441;28;20051;-74
2021/04/26 08:41:41;;;;;;;10.48;3.38;;;;;;;12.07;43.01;102211.38;5054695;28;20060;-74
2021/04/26 08:44:08;;;;;;;9.77;3.80;;;;;;;12.32;42.71;102220.78;5061939;28;20059;-74
2021/04/26 08:46:35;;;;;;;10.57;3.72;;;;;;;12.50;42.20;102210.56;5057666;28;20048;-73
2021/04/26 08:49:02;;;;;;;12.05;4.68;;;;;;;12.74;41.55;102205.09;5058351;28;20052;-74
2021/04/26 08:51:30;;;;;;;8.95;4.28;;;;;;;12.97;41.69;102203.16;5054991;28;20068;-74
2021/04/26 08:53:57;;;;;;;12.23;3.42;;;;;;;13.19;39.85;102210.13;5044255;28;20055;-74
2021/04/26 08:56:23;;;;;;;10.57;4.20;;;;;;;13.38;39.13;102195.41;5063693;28;20121;-73
2021/04/26 08:58:49;;;;;;;12.93;3.17;;;;;;;13.59;39.30;102195.38;5064703;28;20639;-73
2021/04/26 09:01:15;;;;;;;13.07;3.90;;;;;;;13.79;39.16;102191.00;5044227;28;20074;-73
2021/04/26 09:03:42;;;;;;;11.73;3.13;;;;;;;13.92;38.06;102182.84;5034594;28;20052;-74
2021/04/26 09:06:12;;;;;;;12.60;4.03;;;;;;;14.14;37.48;102195.78;5064653;28;20053;-74
2021/04/26 09:08:38;;;;;;;8.85;3.28;;;;;;;14.29;36.15;102190.09;5055453;28;20063;-74
2021/04/26 09:11:06;;;;;;;12.07;4.22;;;;;;;14.43;35.76;102197.66;5061617;28;20052;-75
2021/04/26 09:13:41;;;;;;;8.18;3.22;;;;;;;14.51;35.07;102181.13;5068114;28;20906;-73
2021/04/26 09:16:20;;;;;;;10.85;3.60;;;;;;;14.62;35.86;102179.19;5054750;28;20539;-77
2021/04/26 09:18:46;;;;;;;;;;;;;;;14.70;34.37;102190.84;5049655;28;20102;-75
2021/04/26 09:21:16;;;;;;;16.65;4.90;;;;;;;14.79;34.62;102176.81;5056737;28;19931;-74
2021/04/26 09:23:42;;;;;;;9.70;4.22;;;;;;;14.90;33.55;102179.31;5059522;28;20053;-75
2021/04/26 09:26:26;;;;;;;7.85;3.85;;;;;;;15.14;33.41;102181.47;5059461;28;20071;-75
2021/04/26 09:29:24;;;;;;;6.95;3.72;;;;;;;15.37;34.28;102176.66;5076766;28;20044;-75
2021/04/26 09:32:10;;;;;;;20.20;4.27;;;;;;;15.50;33.32;102173.69;5042444;28;20060;-75
2021/04/26 09:34:44;;;;;;;10.13;3.70;;;;;;;15.53;33.49;102168.13;5061783;28;20048;-74
2021/04/26 09:37:10;;;;;;;9.20;4.13;;;;;;;15.63;34.05;102170.72;5055418;28;20143;-75
2021/04/26 09:39:59;;;;;;;13.32;4.35;;;;;;;15.79;33.03;102160.34;5062320;28;20061;-73
2021/04/26 09:42:39;;;;;;;12.90;4.50;;;;;;;15.95;32.72;102157.03;5051475;28;20052;-73
2021/04/26 09:45:31;;;;;;;13.90;4.40;;;;;;;16.16;32.67;102161.22;5059561;28;20049;-74
2021/04/26 09:48:12;;;;;;;13.32;4.70;;;;;;;16.23;30.31;102161.44;5061624;28;20115;-73
2021/04/26 09:50:57;;;;;;;13.23;5.05;;;;;;;16.29;31.07;102158.19;5055378;28;20049;-73
2021/04/26 09:53:26;;;;;;;12.52;5.03;;;;;;;16.36;30.65;102154.78;5042716;28;20047;-74
2021/04/26 09:55:55;;;;;;;13.52;4.80;;;;;;;15.96;29.63;102148.13;5055635;28;20053;-73
2021/04/26 09:58:22;;;;;;;10.18;4.68;;;;;;;16.40;31.28;102148.22;5051015;28;20056;-73
2021/04/26 10:00:48;;;;;;;16.30;5.80;;;;;;;16.55;30.86;102142.38;5051990;28;20052;-73
2021/04/26 10:03:17;;;;;;;14.55;4.93;;;;;;;16.71;29.89;102145.16;5062665;28;20044;-73
2021/04/26 10:05:45;;;;;;;10.93;4.45;;;;;;;16.57;28.58;102141.25;5056376;28;20040;-73
2021/04/26 10:08:13;;;;;;;14.80;4.65;;;;;;;16.53;29.63;102142.53;5050630;28;20056;-73
2021/04/26 10:10:42;;;;;;;15.53;5.27;;;;;;;16.65;29.86;102137.00;5044666;28;20102;-74
2021/04/26 10:13:10;;;;;;;10.88;4.70;;;;;;;16.80;29.86;102135.44;5051226;28;20083;-74
2021/04/26 10:15:37;;;;;;;13.13;5.45;;;;;;;17.12;29.88;102141.97;5042896;28;20048;-74
2021/04/26 10:18:07;;;;;;;9.88;4.82;;;;;;;17.25;28.45;102142.38;5057275;28;20215;-74
2021/04/26 10:20:42;;;;;;;12.55;5.13;;;;;;;17.38;29.62;102139.28;5060860;28;20170;-74
2021/04/26 10:23:32;;;;;;;13.23;5.20;;;;;;;17.23;28.24;102127.59;5056085;28;20056;-73
2021/04/26 10:26:00;;;;;;;11.20;4.53;;;;;;;17.36;28.29;102125.34;5043947;28;20603;-74
2021/04/26 10:28:30;;;;;;;8.75;4.78;;;;;;;17.41;27.28;102124.88;5050359;28;20084;-75
2021/04/26 10:30:59;;;;;;;10.35;4.43;;;;;;;17.59;27.90;102115.81;5061041;28;20159;-74
2021/04/26 10:33:26;;;;;;;10.15;4.97;;;;;;;17.52;27.40;102120.13;5059517;28;20186;-73
2021/04/26 10:35:55;;;;;;;10.45;4.93;;;;;;;17.40;27.20;102113.41;5055704;28;20064;-72
2021/04/26 10:38:34;;;;;;;16.90;4.53;;;;;;;17.79;28.28;102108.38;5059304;28;20078;-73
2021/04/26 10:41:03;;;;;;;11.10;4.85;;;;;;;17.78;28.03;102111.22;5046977;28;20419;-72
2021/04/26 10:43:31;;;;;;;12.43;4.90;;;;;;;17.82;27.44;102106.41;5041341;28;20060;-72
2021/04/26 10:46:16;;;;;;;12.02;5.13;;;;;;;17.98;27.43;102114.44;5057019;28;20471;-72
2021/04/26 10:49:05;;;;;;;11.07;4.60;;;;;;;18.28;27.52;102106.81;5055273;28;20148;-72
2021/04/26 10:51:37;;;;;;;15.85;5.40;;;;;;;18.29;27.54;102109.31;5054175;28;20045;-72
2021/04/26 10:54:06;;;;;;;11.93;5.13;;;;;;;18.22;26.96;102094.22;5058392;28;21556;-72
2021/04/26 10:56:34;;;;;;;11.02;4.57;;;;;;;18.35;27.73;102087.41;5052008;28;20052;-73
2021/04/26 10:59:16;;;;;;;14.43;5.05;;;;;;;18.65;28.09;102079.72;5054228;28;20057;-71
2021/04/26 11:01:47;;;;;;;10.32;4.50;;;;;;;18.73;27.35;102062.94;5058814;28;20131;-71
2021/04/26 11:04:13;;;;;;;11.02;4.78;;;;;;;18.61;27.28;102061.63;5049590;28;20559;-73
2021/04/26 11:07:20;;;;;;;11.32;5.28;;;;;;;18.72;26.74;102051.47;5055211;28;20459;-72
2021/04/26 11:09:46;;;;;;;13.02;5.13;;;;;;;18.76;26.78;102046.66;5051587;28;20528;-73
2021/04/26 11:12:46;;;;;;;9.43;4.38;;;;;;;18.89;26.48;102046.94;5059754;28;20570;-72
2021/04/26 11:15:14;;;;;;;9.23;4.82;;;;;;;18.69;26.82;102038.53;5044709;28;20060;-74
2021/04/26 11:17:40;;;;;;;10.88;4.85;;;;;;;19.00;28.42;102032.47;5059931;28;20397;-74
2021/04/26 11:20:12;;;;;;;9.40;4.70;;;;;;;19.06;27.27;102025.63;5056272;28;20092;-75
2021/04/26 11:22:39;;;;;;;12.27;4.43;;;;;;;19.24;27.59;102020.88;5060181;28;20079;-74
2021/04/26 11:25:08;;;;;;;9.13;4.07;;;;;;;19.44;26.65;102023.09;5064339;28;20836;-73
2021/04/26 11:27:36;;;;;;;8.98;4.75;;;;;;;19.47;26.49;102025.41;5052994;28;20102;-74
2021/04/26 11:30:02;;;;;;;13.88;4.80;;;;;;;19.53;26.55;102030.03;5046492;28;20087;-74
2021/04/26 11:32:28;;;;;;;8.80;4.03;;;;;;;19.59;26.76;102020.50;5052638;28;20098;-74
2021/04/26 11:34:56;;;;;;;12.07;4.95;;;;;;;19.69;26.54;102023.75;5063658;28;20084;-73